Aérodrome :
LOGIN :

S'inscrire | Disclaimer

   EN    FR    IT 

 










Légende :    VFR   VFR Marginal   IFR   IFR Intensif   IFR Très Intensif
Visi : 
Plafond : 
>= 8 km
>= 3000ft
5 à 8 km
1000 à 3000 ft
1500m à 5 km
500 à 1000 ft
800 à 1500m
200 à 500 ft
< 800m
< 200 ft
Symboles :   Orages  Brouillard  Fortes neiges  Fortes précipitations  Vent > 20 kt
SIGMETs :   Divers  Orages  Givrage  Turbulence  Onde Orograph.  Cendres Volcan.







- Altitude de l'aérodrome : 290 ft
- Code IATA : ACI
- Voir les cartes d'approche


EGJA - Alderney

DERNIER METAR :
  • 301220Z 15012KT 9999 BKN007 08/08 Q0996

METARs EXPIRÉS :
  • 301150Z 14014KT 9999 -RA FEW006 BKN010 08/08 Q0997
  • 301120Z 13014KT 9999 -RA FEW006 BKN010 08/08 Q0997
  • 301050Z 14016KT 9999 -RA BKN006 08/08 Q0997
  • 301020Z 15010KT 9999 -RA SCT007 BKN030 08/08 Q0997

TAF TAF EGJA
Valide du 30 à 12h jusqu'au 30 à 19h UTC


301055Z 3012/3019 16017KT 9999 BKN012
TEMPO 3012/3021 5000 RA BKN006
PROB30
TEMPO 3014/3021 TSRA BKN010CB
Pas de NOTAMs connus pour ce terrain.
2 SIGMETs publiés pour la FIR Brest (LFRR) :
 
Orages noyés dans la masse
LFRR SIGMET 7 VALID 301245/301500 LFPW
LFRR BREST FIR/UIR EMBD TS OBS WI N4745 W00015 - N4700 W00015 - N4745 W00115 - N4815 W00045 TOP FL300 MOV NE 15KT NC=
Turbulence forte
LFRR SIGMET 6 VALID 301200/301600 LFPW
LFRR BREST FIR/UIR SEV TURB FCST S OF LINE N4545 W00145 - N4600 W00800 SFC/FL070 MOV E 15KT NC=



MET'MAP, la Météo Aéronautique d'un coup d'oeil ! - Copyright ORBIFLY Décembre 2007 - Disclaimer

ORBIFLY MET'MAP TEAM :

Programmation & Développement : Alexandra Zaïnal
Conception & Développement : Baudouin d'Aumeries
Co-Programmation & Développement : Marc-Olivier Méhu
Soutien technique & logistique : Manuel Goepfert

Contact : metmap@orbifly.com




SOURCES & CREDITS :

   NOAA